ホワイトホース の空港の天気 - METARとTAF

ホワイトホース国際空港 ( CYXY / YXY ) - カナダ ユーコン準州ホワイトホース
飛行場実況気象(Metar)
観測時間10/21 08:00 PDT (10/21 15:00 UTC)
風向・風速北 4m/s
視程10km以上
天気現象弱い雪
全天の4割程度の雲 雲底高度 670m
全天の8割程度の雲 雲底高度 910m
気温-9℃
湿度73%
気圧1039hPa
METARCYXY 211500Z 35007KT 15SM -SN SCT022 BKN030 M09/M13 A3051 RMK SC3SC4 SLP390
過去の天気等 Google飛行場航空写真 Wunderground天気予報

過去48時間のMETAR

飛行場予報(TAF)
発表時間: 10/21 04:38 PDT (10/21 11:38 UTC)
予報対象時間: 21日5時 PDT ~ 21日17時 PDT
風向・風速北 6m/s
視程10km以上
全天の4割程度の雲 雲底高度 610m
全天を覆う雲 雲底高度 910m
21日5時 PDT ~ 21日13時 PDT に一時的に
視程6440m
天気現象弱い雪
全天の4割程度の雲 雲底高度 370m
全天を覆う雲 雲底高度 610m
21日13時 PDT から
風向・風速北北西 4m/s
視程10km以上
全天の8割程度の雲 雲底高度 610m
21日13時 PDT ~ 21日17時 PDT に一時的に
全天の4割程度の雲 雲底高度 610m
TAF CYXY 211138Z 2112/2124 35012KT P6SM SCT020 OVC030
TEMPO 2112/2120 4SM -SN SCT012 OVC020
FM212000 34008KT P6SM BKN020
TEMPO 2120/2124 SCT020 RMK NXT FCST BY 211800Z